Time;durP1;ratioP1;P1;durP2;ratioP2;P2;SDS_P1;SDS_P2;PMS_P1;PMS_P2;Temp;Humidity;BMP_temperature;BMP_pressure;BME280_temperature;BME280_humidity;BME280_pressure;Samples;Min_cycle;Max_cycle;Signal;HPM_P1;HPM_P2
2021/09/10 00:01:48;;;;;;;52.13;37.45;;;16.10;75.70;;;;;;5114800;28;20466;-68
2021/09/10 00:04:14;;;;;;;55.42;37.83;;;16.10;75.70;;;;;;5114078;28;20024;-68
2021/09/10 00:06:40;;;;;;;54.03;38.05;;;16.00;75.70;;;;;;5114397;28;20030;-68
2021/09/10 00:09:06;;;;;;;54.35;39.20;;;16.00;75.80;;;;;;5114452;28;20350;-68
2021/09/10 00:11:32;;;;;;;57.15;38.58;;;16.00;75.90;;;;;;5114341;28;20104;-68
2021/09/10 00:13:58;;;;;;;56.92;38.80;;;15.90;75.80;;;;;;5114266;28;20019;-68
2021/09/10 00:16:24;;;;;;;53.47;37.25;;;16.00;75.80;;;;;;5096047;28;20358;-68
2021/09/10 00:18:50;;;;;;;52.33;37.72;;;15.90;75.90;;;;;;5114233;28;20080;-68
2021/09/10 00:21:16;;;;;;;51.95;37.78;;;15.90;75.90;;;;;;5114143;28;20400;-68
2021/09/10 00:23:42;;;;;;;53.67;39.15;;;16.00;75.90;;;;;;5114139;28;20015;-68
2021/09/10 00:26:08;;;;;;;54.47;38.15;;;15.90;75.90;;;;;;5113905;28;20420;-68
2021/09/10 00:28:34;;;;;;;52.88;37.30;;;15.90;75.90;;;;;;5113949;28;20054;-68
2021/09/10 00:31:00;;;;;;;52.28;38.17;;;15.90;75.90;;;;;;5114059;28;20024;-68
2021/09/10 00:33:26;;;;;;;49.90;37.22;;;15.90;76.50;;;;;;5114036;28;20047;-67
2021/09/10 00:35:51;;;;;;;48.50;36.40;;;15.80;75.80;;;;;;5113768;28;20058;-68
2021/09/10 00:38:17;;;;;;;50.25;36.33;;;15.80;75.90;;;;;;5113856;28;20096;-67
2021/09/10 00:40:44;;;;;;;39.95;31.38;;;15.80;76.00;;;;;;5095592;28;20232;-68
2021/09/10 00:43:10;;;;;;;41.42;32.35;;;15.80;76.00;;;;;;5113780;28;20016;-68
2021/09/10 00:45:45;;;;;;;42.97;33.08;;;15.80;75.90;;;;;;5113817;28;20069;-68
2021/09/10 00:48:11;;;;;;;47.83;34.67;;;15.70;75.90;;;;;;5095648;28;20027;-68
2021/09/10 00:50:38;;;;;;;48.28;34.97;;;15.70;75.80;;;;;;5113591;28;20023;-68
2021/09/10 00:53:04;;;;;;;49.90;35.08;;;15.70;75.90;;;;;;5113727;28;20077;-68
2021/09/10 00:55:30;;;;;;;46.08;33.85;;;15.70;75.90;;;;;;5113582;28;20027;-68
2021/09/10 00:57:56;;;;;;;39.38;30.80;;;15.60;76.00;;;;;;5113287;28;20039;-68
2021/09/10 01:00:22;;;;;;;42.58;31.02;;;15.60;76.00;;;;;;5113597;28;20425;-67
2021/09/10 01:02:48;;;;;;;44.50;31.27;;;15.60;76.10;;;;;;5113382;28;20020;-68
2021/09/10 01:05:14;;;;;;;39.92;29.65;;;15.60;76.10;;;;;;5113452;28;20347;-68
2021/09/10 01:07:42;;;;;;;38.25;29.60;;;15.60;76.10;;;;;;5113447;28;20045;-67
2021/09/10 01:10:08;;;;;;;58.42;44.20;;;15.60;76.10;;;;;;5113272;28;20028;-67
2021/09/10 01:12:35;;;;;;;44.75;31.45;;;15.60;76.00;;;;;;5113211;28;20483;-68
2021/09/10 01:15:04;;;;;;;34.88;27.05;;;15.50;76.00;;;;;;5113836;28;20035;-67
2021/09/10 01:17:30;;;;;;;39.00;27.52;;;15.50;76.00;;;;;;5094543;28;20401;-67
2021/09/10 01:19:55;;;;;;;37.20;27.48;;;15.50;75.90;;;;;;5094894;28;20034;-68
2021/09/10 01:22:21;;;;;;;36.45;28.27;;;15.50;75.90;;;;;;5113000;28;20048;-67
2021/09/10 01:25:06;;;;;;;39.13;28.45;;;15.50;76.00;;;;;;5112943;28;20019;-68
2021/09/10 01:27:32;;;;;;;39.10;28.70;;;15.50;76.20;;;;;;5112953;28;20024;-67
2021/09/10 01:29:59;;;;;;;34.65;27.20;;;15.50;76.20;;;;;;5113019;28;20156;-68
2021/09/10 01:32:25;;;;;;;40.95;30.35;;;15.50;76.30;;;;;;5113012;28;20027;-68
2021/09/10 01:34:51;;;;;;;37.97;29.13;;;15.40;76.30;;;;;;5112928;28;20023;-68
2021/09/10 01:37:17;;;;;;;35.00;28.58;;;15.40;76.30;;;;;;5112788;28;20400;-68
2021/09/10 01:39:43;;;;;;;37.97;29.05;;;15.30;76.20;;;;;;5112542;28;20019;-68
2021/09/10 01:42:09;;;;;;;38.72;29.83;;;15.30;76.40;;;;;;5112983;28;20034;-68
2021/09/10 01:44:34;;;;;;;39.40;30.02;;;15.20;76.50;;;;;;5112763;28;20032;-68
2021/09/10 01:47:00;;;;;;;40.30;29.85;;;15.20;76.70;;;;;;5112808;28;20024;-68
2021/09/10 01:49:26;;;;;;;40.00;30.08;;;15.20;76.90;;;;;;5112590;28;20068;-68
2021/09/10 01:51:52;;;;;;;39.83;30.70;;;15.20;77.00;;;;;;5112574;28;20027;-67
2021/09/10 01:54:18;;;;;;;39.75;29.73;;;15.10;77.10;;;;;;5112495;28;20019;-67
2021/09/10 01:56:43;;;;;;;37.60;29.13;;;15.10;77.30;;;;;;5112617;28;20026;-67
2021/09/10 01:59:09;;;;;;;37.42;29.35;;;15.10;77.40;;;;;;5112327;28;20126;-67
2021/09/10 02:01:35;;;;;;;38.00;29.70;;;15.00;77.50;;;;;;5112337;28;20085;-67
2021/09/10 02:04:01;;;;;;;39.35;30.42;;;15.00;77.60;;;;;;5112472;28;20094;-67
2021/09/10 02:06:27;;;;;;;39.00;28.92;;;15.00;77.60;;;;;;5112391;28;20069;-67
2021/09/10 02:08:53;;;;;;;35.90;28.25;;;15.00;77.70;;;;;;5112363;28;20466;-67
2021/09/10 02:11:19;;;;;;;36.33;28.42;;;15.00;77.80;;;;;;5094422;28;20737;-67
2021/09/10 02:13:45;;;;;;;40.45;29.88;;;15.00;77.90;;;;;;5112631;28;20028;-67
2021/09/10 02:16:11;;;;;;;37.50;29.20;;;15.00;78.00;;;;;;5112220;28;20037;-68
2021/09/10 02:18:38;;;;;;;38.83;29.15;;;15.00;78.00;;;;;;5112182;28;20031;-67
2021/09/10 02:21:04;;;;;;;60.55;44.72;;;14.90;78.00;;;;;;5112173;28;20073;-67
2021/09/10 02:23:30;;;;;;;95.28;72.38;;;14.90;78.00;;;;;;5112291;28;20016;-67
2021/09/10 02:25:56;;;;;;;40.00;32.40;;;14.90;78.10;;;;;;5112187;28;20028;-67
2021/09/10 02:28:22;;;;;;;43.50;31.88;;;14.90;78.70;;;;;;5114096;28;20016;-67
2021/09/10 02:30:48;;;;;;;45.17;32.03;;;14.90;78.10;;;;;;5116411;28;20019;-67
2021/09/10 02:33:14;;;;;;;39.72;30.65;;;14.80;78.20;;;;;;5116431;28;20032;-67
2021/09/10 02:35:40;;;;;;;37.45;29.30;;;14.90;78.30;;;;;;5116377;28;20165;-67
2021/09/10 02:38:06;;;;;;;38.10;29.55;;;14.80;78.30;;;;;;5116319;28;20019;-68
2021/09/10 02:40:32;;;;;;;39.33;29.42;;;14.80;78.30;;;;;;5116256;28;20493;-68
2021/09/10 02:42:58;;;;;;;41.63;32.35;;;14.80;78.20;;;;;;5116248;28;20016;-67
2021/09/10 02:45:23;;;;;;;40.08;31.85;;;14.80;78.10;;;;;;5116075;28;20076;-67
2021/09/10 02:47:49;;;;;;;40.90;32.55;;;14.80;78.00;;;;;;5116182;28;20098;-67
2021/09/10 02:50:15;;;;;;;43.63;31.50;;;14.80;78.00;;;;;;5116148;28;20057;-67
2021/09/10 02:52:41;;;;;;;44.38;32.95;;;14.80;78.00;;;;;;5115971;28;20034;-67
2021/09/10 02:55:07;;;;;;;43.90;32.08;;;14.70;78.00;;;;;;5116087;28;20023;-67
2021/09/10 02:57:34;;;;;;;41.45;31.85;;;14.70;78.00;;;;;;5116029;28;20024;-67
2021/09/10 03:00:00;;;;;;;44.47;32.35;;;14.70;78.10;;;;;;5115849;28;20036;-67
2021/09/10 03:02:25;;;;;;;45.85;33.83;;;14.60;78.10;;;;;;5115929;28;20351;-67
2021/09/10 03:04:51;;;;;;;41.35;30.27;;;14.60;78.10;;;;;;5115775;28;20028;-67
2021/09/10 03:07:17;;;;;;;44.88;31.73;;;14.60;78.10;;;;;;5115896;28;20011;-67
2021/09/10 03:09:43;;;;;;;46.20;32.15;;;14.60;78.20;;;;;;5115687;28;20423;-67
2021/09/10 03:12:08;;;;;;;38.08;29.02;;;14.50;78.30;;;;;;5115392;28;20024;-67
2021/09/10 03:14:34;;;;;;;35.17;28.55;;;14.50;78.50;;;;;;5115497;28;20374;-67
2021/09/10 03:17:00;;;;;;;39.45;29.85;;;14.50;78.60;;;;;;5115445;28;20071;-68
2021/09/10 03:19:27;;;;;;;47.17;31.63;;;14.50;78.60;;;;;;5115422;28;20019;-68
2021/09/10 03:21:53;;;;;;;50.40;33.95;;;14.50;78.50;;;;;;5115330;28;20024;-68
2021/09/10 03:24:19;;;;;;;48.50;33.08;;;14.50;78.20;;;;;;5115201;28;20073;-68
2021/09/10 03:26:45;;;;;;;47.75;32.67;;;14.50;77.90;;;;;;5115134;28;20024;-68
2021/09/10 03:29:12;;;;;;;43.90;29.83;;;14.50;77.80;;;;;;5115266;28;20015;-68
2021/09/10 03:31:39;;;;;;;43.85;32.40;;;14.60;77.90;;;;;;5115238;28;20047;-68
2021/09/10 03:34:05;;;;;;;43.35;30.42;;;14.70;77.70;;;;;;5114176;28;20036;-68
2021/09/10 03:36:30;;;;;;;40.08;29.65;;;14.80;77.50;;;;;;5115055;28;20027;-68
2021/09/10 03:38:56;;;;;;;71.85;46.63;;;15.10;77.20;;;;;;5096050;28;20019;-67
2021/09/10 03:41:22;;;;;;;52.70;35.03;;;15.40;77.10;;;;;;5114489;28;20028;-68
2021/09/10 03:43:52;;;;;;;60.67;32.60;;;15.80;75.60;;;;;;5115027;28;20094;-69
2021/09/10 03:46:19;;;;;;;47.67;33.20;;;16.10;74.50;;;;;;5113434;28;20023;-69
2021/09/10 03:48:45;;;;;;;48.65;29.95;;;16.60;73.30;;;;;;5114947;28;20028;-69
2021/09/10 03:51:11;;;;;;;42.58;30.08;;;17.10;72.00;;;;;;5108096;28;20034;-69
2021/09/10 03:53:37;;;;;;;47.17;30.33;;;17.70;70.70;;;;;;5103561;28;20028;-69
2021/09/10 03:56:04;;;;;;;43.53;28.40;;;18.30;69.10;;;;;;5099434;28;20111;-69
2021/09/10 03:58:29;;;;;;;39.17;28.30;;;19.00;67.70;;;;;;5094016;28;20444;-69
2021/09/10 04:00:55;;;;;;;49.78;29.42;;;19.60;66.00;;;;;;5093887;28;20032;-69
2021/09/10 04:03:21;;;;;;;41.75;29.52;;;20.30;64.40;;;;;;5094201;28;20409;-69
2021/09/10 04:05:47;;;;;;;40.60;28.77;;;20.90;62.80;;;;;;5093917;28;20031;-69
2021/09/10 04:08:13;;;;;;;44.53;29.02;;;21.60;61.30;;;;;;5094239;28;20099;-69
2021/09/10 04:10:39;;;;;;;39.15;26.55;;;22.30;59.70;;;;;;5094183;28;20134;-69
2021/09/10 04:13:05;;;;;;;36.70;25.75;;;22.90;58.10;;;;;;5093999;28;20024;-69
2021/09/10 04:15:30;;;;;;;33.63;23.75;;;23.50;56.70;;;;;;5093863;28;20066;-70
2021/09/10 04:17:56;;;;;;;35.40;23.73;;;24.10;55.40;;;;;;5093911;28;20031;-69
2021/09/10 04:20:22;;;;;;;31.02;23.65;;;24.70;54.10;;;;;;5093603;28;20046;-69
2021/09/10 04:22:48;;;;;;;28.67;22.08;;;25.30;52.90;;;;;;5093453;28;20051;-69
2021/09/10 04:25:13;;;;;;;31.38;23.88;;;25.90;51.80;;;;;;5075581;28;20183;-70
2021/09/10 04:27:39;;;;;;;33.85;23.15;;;26.40;50.80;;;;;;5093188;28;20020;-70
2021/09/10 04:30:06;;;;;;;35.92;23.50;;;26.80;49.80;;;;;;5092964;28;20415;-71
2021/09/10 04:32:32;;;;;;;35.15;24.98;;;27.30;48.90;;;;;;5092791;28;20354;-69
2021/09/10 04:34:58;;;;;;;34.97;22.83;;;27.80;48.20;;;;;;5102242;28;20027;-70
2021/09/10 04:37:24;;;;;;;45.85;25.23;;;28.30;47.30;;;;;;5098765;28;20032;-70
2021/09/10 04:39:50;;;;;;;36.13;23.63;;;28.80;46.50;;;;;;5092951;28;20028;-70
2021/09/10 04:42:16;;;;;;;42.03;26.30;;;29.30;45.60;;;;;;5109125;28;20016;-70
2021/09/10 04:44:42;;;;;;;38.60;26.45;;;29.60;44.90;;;;;;5094887;28;20104;-68
2021/09/10 04:47:07;;;;;;;40.65;27.15;;;30.00;44.40;;;;;;5113304;28;20062;-68
2021/09/10 04:49:34;;;;;;;43.30;26.10;;;30.40;43.80;;;;;;5094255;28;20054;-69
2021/09/10 04:52:00;;;;;;;41.10;26.70;;;30.80;43.20;;;;;;5112673;28;20023;-70
2021/09/10 04:54:26;;;;;;;53.38;28.20;;;31.10;42.60;;;;;;5113235;28;20020;-70
2021/09/10 04:56:52;;;;;;;43.20;26.02;;;31.40;42.10;;;;;;5113200;28;20374;-69
2021/09/10 04:59:18;;;;;;;40.05;26.73;;;31.60;41.60;;;;;;5113074;28;20040;-71
2021/09/10 05:01:44;;;;;;;36.22;26.45;;;31.90;41.20;;;;;;5111379;28;21002;-69
2021/09/10 05:04:10;;;;;;;41.67;27.90;;;32.20;40.70;;;;;;5112580;28;20031;-69
2021/09/10 05:06:37;;;;;;;39.22;27.88;;;32.60;40.40;;;;;;5112108;28;20114;-70
2021/09/10 05:09:02;;;;;;;45.25;28.65;;;33.00;40.00;;;;;;5087308;28;20408;-70
2021/09/10 05:11:28;;;;;;;44.08;27.88;;;33.30;39.60;;;;;;5073861;28;20028;-71
2021/09/10 05:13:54;;;;;;;42.88;28.42;;;33.70;39.30;;;;;;5103953;28;20110;-69
2021/09/10 05:16:20;;;;;;;35.70;26.77;;;34.00;38.90;;;;;;5112297;28;20072;-67
2021/09/10 05:18:45;;;;;;;44.25;27.02;;;34.30;38.50;;;;;;5093473;28;20075;-67
2021/09/10 05:21:11;;;;;;;41.80;27.02;;;34.70;38.30;;;;;;5112267;28;20208;-69
2021/09/10 05:23:37;;;;;;;44.22;25.63;;;35.00;37.90;;;;;;5111308;28;20035;-70
2021/09/10 05:26:03;;;;;;;43.35;26.13;;;35.40;37.60;;;;;;5112566;28;20020;-69
2021/09/10 05:28:28;;;;;;;40.88;24.10;;;35.70;37.30;;;;;;5112435;28;20252;-69
2021/09/10 05:30:54;;;;;;;41.08;23.75;;;36.00;36.90;;;;;;5107664;28;20024;-70
2021/09/10 05:33:20;;;;;;;43.30;23.65;;;36.40;36.50;;;;;;5107142;28;20043;-70
2021/09/10 05:35:46;;;;;;;37.83;23.90;;;36.80;36.20;;;;;;5093750;28;20385;-69
2021/09/10 05:38:11;;;;;;;43.00;24.20;;;37.10;35.80;;;;;;5092252;28;20038;-72
2021/09/10 05:40:37;;;;;;;38.33;23.00;;;37.40;35.60;;;;;;5111689;28;20121;-72
2021/09/10 05:43:03;;;;;;;38.47;23.13;;;37.60;35.20;;;;;;5109509;28;20020;-69
2021/09/10 05:45:28;;;;;;;35.33;21.20;;;38.00;34.90;;;;;;5111985;28;20027;-69
2021/09/10 05:47:54;;;;;;;30.88;20.80;;;38.20;34.60;;;;;;5111621;28;20040;-69
2021/09/10 05:50:20;;;;;;;41.13;21.35;;;38.50;34.40;;;;;;5110813;28;20469;-69
2021/09/10 05:52:46;;;;;;;47.40;20.48;;;38.90;34.30;;;;;;5111746;28;20031;-69
2021/09/10 05:55:11;;;;;;;38.00;21.63;;;39.20;34.10;;;;;;5112386;28;20034;-74
2021/09/10 05:57:37;;;;;;;41.78;23.52;;;39.50;33.80;;;;;;5112039;28;20469;-76
2021/09/10 06:00:04;;;;;;;30.05;18.55;;;39.70;33.50;;;;;;5109338;28;20106;-76
2021/09/10 06:02:30;;;;;;;27.42;21.02;;;40.00;33.40;;;;;;5111289;28;20359;-76
2021/09/10 06:04:55;;;;;;;37.70;20.10;;;40.20;33.10;;;;;;5105607;28;20027;-77
2021/09/10 06:07:21;;;;;;;35.17;20.73;;;40.40;33.00;;;;;;5094217;28;20030;-76
2021/09/10 06:09:47;;;;;;;30.52;19.08;;;40.60;32.70;;;;;;5091618;28;20024;-77
2021/09/10 06:12:13;;;;;;;35.97;18.85;;;40.80;32.50;;;;;;5091704;28;20017;-77
2021/09/10 06:14:39;;;;;;;29.67;19.48;;;41.00;32.50;;;;;;5091866;28;20032;-77
2021/09/10 06:17:05;;;;;;;40.47;20.05;;;41.10;32.40;;;;;;5091315;28;20099;-77
2021/09/10 06:19:31;;;;;;;28.27;18.05;;;41.20;32.20;;;;;;5091581;28;20036;-77
2021/09/10 06:21:56;;;;;;;35.20;18.52;;;41.40;32.20;;;;;;5091495;28;20032;-76
2021/09/10 06:24:22;;;;;;;33.63;18.15;;;41.40;32.10;;;;;;5073409;28;20043;-77
2021/09/10 06:26:48;;;;;;;29.15;18.38;;;41.50;32.00;;;;;;5091418;28;20076;-76
2021/09/10 06:29:14;;;;;;;28.05;17.30;;;41.60;31.90;;;;;;5091202;28;20027;-76
2021/09/10 06:31:39;;;;;;;28.05;17.92;;;41.60;31.90;;;;;;5076202;28;20027;-76
2021/09/10 06:34:06;;;;;;;25.27;16.90;;;41.60;31.80;;;;;;5100047;28;20032;-76
2021/09/10 06:36:32;;;;;;;29.05;16.30;;;41.60;31.70;;;;;;5090711;28;20024;-75
2021/09/10 06:38:58;;;;;;;25.30;16.77;;;41.60;31.60;;;;;;5090980;28;20485;-76
2021/09/10 06:41:24;;;;;;;26.23;16.48;;;41.50;31.60;;;;;;5102486;28;20496;-75
2021/09/10 06:43:50;;;;;;;21.42;16.08;;;41.40;31.80;;;;;;5093489;28;20022;-75
2021/09/10 06:46:16;;;;;;;28.95;15.57;;;41.20;31.90;;;;;;5107598;28;20098;-75
2021/09/10 06:48:42;;;;;;;21.02;14.43;;;41.20;31.80;;;;;;5100185;28;20482;-72
2021/09/10 06:51:08;;;;;;;24.27;14.23;;;41.20;31.80;;;;;;5108980;28;20027;-73
2021/09/10 06:53:35;;;;;;;22.67;14.80;;;41.00;31.60;;;;;;5111531;28;20031;-74
2021/09/10 06:56:00;;;;;;;18.17;13.48;;;40.80;31.60;;;;;;5111554;28;20470;-74
2021/09/10 06:58:26;;;;;;;21.13;13.38;;;40.60;31.70;;;;;;5111449;28;20047;-75
2021/09/10 07:00:52;;;;;;;26.98;14.57;;;40.50;31.90;;;;;;5111325;28;20024;-74
2021/09/10 07:03:18;;;;;;;24.90;14.15;;;40.50;32.00;;;;;;5111235;28;20035;-74
2021/09/10 07:05:44;;;;;;;26.83;14.00;;;40.40;32.10;;;;;;5092367;28;20123;-74
2021/09/10 07:08:09;;;;;;;18.15;13.65;;;40.40;31.90;;;;;;5110030;28;20027;-74
2021/09/10 07:10:35;;;;;;;21.63;13.45;;;40.30;32.00;;;;;;5091600;28;20465;-74
2021/09/10 07:13:01;;;;;;;23.17;13.65;;;40.30;32.00;;;;;;5110183;28;20073;-74
2021/09/10 07:15:27;;;;;;;20.17;13.10;;;40.10;31.80;;;;;;5113531;28;20042;-74
2021/09/10 07:17:53;;;;;;;19.30;13.05;;;40.00;31.80;;;;;;5113948;28;20023;-74
2021/09/10 07:20:19;;;;;;;17.27;12.43;;;39.90;32.10;;;;;;5112779;28;20110;-75
2021/09/10 07:22:45;;;;;;;21.15;13.55;;;39.80;32.10;;;;;;5113036;28;20036;-74
2021/09/10 07:25:11;;;;;;;18.05;12.65;;;39.60;32.20;;;;;;5113199;28;20058;-74
2021/09/10 07:27:37;;;;;;;24.13;13.38;;;39.50;32.30;;;;;;5113197;28;20027;-74
2021/09/10 07:30:04;;;;;;;18.15;12.20;;;39.40;32.30;;;;;;5113379;28;20029;-73
2021/09/10 07:32:29;;;;;;;21.42;12.40;;;39.20;32.30;;;;;;5114169;28;20027;-73
2021/09/10 07:34:55;;;;;;;26.90;13.50;;;39.10;32.50;;;;;;5114448;28;20488;-73
2021/09/10 07:37:27;;;;;;;24.77;13.02;;;38.80;32.50;;;;;;5114444;28;20031;-72
2021/09/10 07:39:56;;;;;;;22.40;12.45;;;38.70;32.60;;;;;;5114414;28;20428;-73
2021/09/10 07:42:22;;;;;;;19.27;12.60;;;38.50;32.70;;;;;;5114638;28;20477;-73
2021/09/10 07:44:49;;;;;;;17.60;13.00;;;38.30;32.70;;;;;;5114546;28;20034;-73
2021/09/10 07:47:15;;;;;;;23.40;12.75;;;38.00;32.80;;;;;;5096162;28;20027;-72
2021/09/10 07:49:42;;;;;;;24.02;12.95;;;37.70;32.90;;;;;;5114493;28;20100;-73
2021/09/10 07:52:07;;;;;;;19.75;12.80;;;37.50;33.20;;;;;;5114282;28;20030;-73
2021/09/10 07:54:33;;;;;;;19.65;12.77;;;37.20;33.60;;;;;;5113930;28;20389;-72
2021/09/10 07:56:59;;;;;;;21.65;13.10;;;37.00;33.90;;;;;;5114201;28;20027;-71
2021/09/10 07:59:24;;;;;;;22.50;12.55;;;36.70;34.20;;;;;;5113779;28;20065;-72
2021/09/10 08:01:50;;;;;;;23.67;13.55;;;36.50;34.30;;;;;;5113659;28;20172;-72
2021/09/10 08:04:16;;;;;;;17.55;12.48;;;36.30;34.60;;;;;;5114154;28;20028;-71
2021/09/10 08:06:41;;;;;;;20.38;13.20;;;36.10;34.70;;;;;;5095970;28;20027;-72
2021/09/10 08:09:07;;;;;;;24.55;13.48;;;35.90;34.80;;;;;;5114034;28;20053;-73
2021/09/10 08:11:33;;;;;;;20.48;12.13;;;35.70;35.00;;;;;;5114022;28;20374;-74
2021/09/10 08:14:07;;;;;;;20.35;11.40;;;35.60;35.40;;;;;;5114139;28;20024;-75
2021/09/10 08:16:33;;;;;;;29.63;12.82;;;35.50;35.40;;;;;;5113752;28;20058;-69
2021/09/10 08:18:59;;;;;;;17.67;12.52;;;35.40;35.60;;;;;;5113675;28;20020;-69
2021/09/10 08:21:25;;;;;;;18.85;12.10;;;35.30;35.60;;;;;;5113441;28;20034;-68
2021/09/10 08:23:50;;;;;;;17.40;11.23;;;35.30;35.70;;;;;;5113392;28;20024;-69
2021/09/10 08:26:16;;;;;;;16.60;10.38;;;35.10;35.80;;;;;;5113079;28;20023;-69
2021/09/10 08:28:42;;;;;;;19.50;10.02;;;35.10;35.90;;;;;;5113305;28;20040;-68
2021/09/10 08:31:08;;;;;;;13.88;9.98;;;35.00;35.80;;;;;;5112103;28;20394;-69
2021/09/10 08:33:34;;;;;;;15.30;9.73;;;34.90;35.60;;;;;;5105775;28;20508;-68
2021/09/10 08:36:01;;;;;;;16.17;10.40;;;34.60;35.60;;;;;;5074731;28;20052;-69
2021/09/10 08:38:27;;;;;;;17.73;9.95;;;34.50;35.70;;;;;;5092861;28;20024;-69
2021/09/10 08:40:56;;;;;;;21.73;10.20;;;34.30;35.90;;;;;;5092862;28;20028;-69
2021/09/10 08:43:23;;;;;;;15.70;10.32;;;34.20;36.00;;;;;;5092763;28;20020;-69
2021/09/10 08:45:48;;;;;;;22.33;10.10;;;34.00;36.10;;;;;;5092129;28;20459;-71
2021/09/10 08:48:17;;;;;;;24.33;11.30;;;34.00;36.10;;;;;;5100286;28;20039;-71
2021/09/10 08:50:42;;;;;;;13.90;11.13;;;33.90;36.30;;;;;;5113053;28;20031;-70
2021/09/10 08:53:09;;;;;;;13.30;10.27;;;33.80;36.20;;;;;;5113284;28;20028;-71
2021/09/10 08:55:35;;;;;;;25.33;15.40;;;33.70;36.20;;;;;;5093330;28;20084;-69
2021/09/10 08:58:00;;;;;;;18.52;11.57;;;33.40;36.50;;;;;;5103690;28;20044;-70
2021/09/10 09:00:37;;;;;;;18.27;10.02;;;33.30;36.80;;;;;;5110057;28;20038;-70
2021/09/10 09:03:08;;;;;;;14.25;10.82;;;33.20;37.00;;;;;;5112844;28;20024;-70
2021/09/10 09:05:35;;;;;;;18.05;9.65;;;32.90;36.90;;;;;;5110375;28;20027;-70
2021/09/10 09:08:08;;;;;;;23.30;12.80;;;32.70;37.20;;;;;;5101262;28;20029;-68
2021/09/10 09:11:00;;;;;;;13.75;9.68;;;32.40;37.30;;;;;;5092535;28;20563;-68
2021/09/10 09:13:30;;;;;;;23.08;15.10;;;32.10;37.60;;;;;;5092349;28;20373;-69
2021/09/10 09:16:40;;;;;;;17.77;13.55;;;32.10;37.80;;;;;;5092122;28;20032;-70
2021/09/10 09:19:07;;;;;;;13.50;9.70;;;32.10;38.10;;;;;;5087835;28;20036;-70
2021/09/10 09:21:35;;;;;;;13.18;9.50;;;32.10;38.30;;;;;;5091657;28;20019;-69
2021/09/10 09:24:13;;;;;;;11.68;9.07;;;32.10;38.30;;;;;;5092038;28;20024;-69
2021/09/10 09:26:43;;;;;;;13.73;9.40;;;32.00;38.20;;;;;;5106150;28;20359;-68
2021/09/10 09:29:17;;;;;;;15.27;9.15;;;32.00;38.40;;;;;;5112250;28;20085;-69
2021/09/10 09:31:56;;;;;;;26.88;10.55;;;31.90;38.20;;;;;;5105840;28;20031;-71
2021/09/10 09:34:48;;;;;;;15.23;10.13;;;31.80;38.50;;;;;;5098482;28;20023;-69
2021/09/10 09:37:19;;;;;;;22.58;10.15;;;31.70;38.60;;;;;;5111141;28;20031;-70
2021/09/10 09:40:01;;;;;;;15.45;9.52;;;31.60;38.80;;;;;;5109936;28;20469;-70
2021/09/10 09:42:32;;;;;;;17.35;10.88;;;31.60;38.80;;;;;;5102338;28;20080;-69
2021/09/10 09:45:27;;;;;;;14.48;9.88;;;31.70;39.00;;;;;;5111728;28;20125;-72
2021/09/10 09:47:53;;;;;;;16.10;9.23;;;31.70;38.50;;;;;;5089878;28;20121;-70
2021/09/10 09:50:22;;;;;;;15.15;8.93;;;31.60;38.30;;;;;;5111717;28;20413;-70
2021/09/10 09:52:50;;;;;;;13.10;9.10;;;31.50;38.30;;;;;;5111571;28;20027;-71
2021/09/10 09:55:17;;;;;;;11.98;9.27;;;31.50;38.30;;;;;;5111754;28;20024;-69
2021/09/10 09:57:43;;;;;;;12.98;9.18;;;31.30;38.00;;;;;;5110288;28;20024;-69
2021/09/10 10:00:10;;;;;;;16.30;9.73;;;31.00;38.40;;;;;;5109458;28;20110;-70
2021/09/10 10:02:37;;;;;;;15.48;10.30;;;30.70;38.50;;;;;;5100324;28;20016;-69
2021/09/10 10:05:06;;;;;;;14.95;10.00;;;30.60;39.60;;;;;;5111632;28;20111;-69
2021/09/10 10:07:41;;;;;;;10.77;9.57;;;30.50;38.80;;;;;;5111392;28;20019;-68
2021/09/10 10:10:09;;;;;;;14.70;9.93;;;30.30;38.50;;;;;;5111858;28;20070;-69
2021/09/10 10:12:35;;;;;;;14.63;9.07;;;29.80;38.80;;;;;;5111696;28;20103;-69
2021/09/10 10:15:24;;;;;;;13.38;9.50;;;29.60;39.20;;;;;;5111561;28;20023;-69
2021/09/10 10:17:50;;;;;;;15.25;9.05;;;29.50;39.80;;;;;;5111959;28;20027;-70
2021/09/10 10:20:44;;;;;;;13.07;9.30;;;29.40;39.50;;;;;;5111509;28;20028;-69
2021/09/10 10:23:43;;;;;;;15.20;10.15;;;29.30;39.60;;;;;;5111406;28;20023;-70
2021/09/10 10:26:11;;;;;;;14.05;9.77;;;29.30;39.90;;;;;;5111102;28;20047;-69
2021/09/10 10:29:01;;;;;;;12.73;8.80;;;29.40;39.90;;;;;;5086163;28;20067;-72
2021/09/10 10:31:59;;;;;;;10.20;8.60;;;29.50;39.70;;;;;;5091521;28;20017;-71
2021/09/10 10:34:27;;;;;;;13.77;9.43;;;29.60;39.30;;;;;;5108496;28;20085;-70
2021/09/10 10:36:52;;;;;;;13.07;10.05;;;29.70;39.10;;;;;;5111278;28;20031;-69
2021/09/10 10:39:27;;;;;;;13.18;10.00;;;29.70;39.00;;;;;;5111108;28;20020;-69
2021/09/10 10:41:58;;;;;;;15.65;10.18;;;29.70;39.20;;;;;;5111088;28;20053;-72
2021/09/10 10:44:32;;;;;;;19.52;9.90;;;29.70;39.40;;;;;;5111505;28;20123;-70
2021/09/10 10:47:09;;;;;;;15.27;9.32;;;29.60;39.30;;;;;;5110657;28;20099;-69
2021/09/10 10:49:46;;;;;;;15.00;9.60;;;29.50;39.50;;;;;;5112541;28;20041;-71
2021/09/10 10:52:34;;;;;;;16.95;9.88;;;29.50;39.80;;;;;;5114757;28;20058;-71
2021/09/10 10:55:30;;;;;;;14.77;9.77;;;29.50;39.60;;;;;;5114775;28;20011;-71
2021/09/10 10:58:21;;;;;;;18.90;9.60;;;29.50;39.50;;;;;;5114178;28;20048;-70
2021/09/10 11:00:49;;;;;;;14.27;9.60;;;29.40;39.50;;;;;;5085306;28;20123;-74
2021/09/10 11:03:16;;;;;;;17.80;9.63;;;29.40;39.70;;;;;;5114912;28;20072;-72
2021/09/10 11:05:43;;;;;;;16.98;9.23;;;29.40;39.90;;;;;;5114283;28;20454;-71
2021/09/10 11:08:09;;;;;;;15.68;9.00;;;29.40;39.90;;;;;;5109712;28;20102;-71
2021/09/10 11:10:35;;;;;;;17.30;9.88;;;29.50;40.20;;;;;;5102861;28;20101;-71
2021/09/10 11:13:02;;;;;;;13.23;10.02;;;29.50;40.20;;;;;;5093818;28;20347;-71
2021/09/10 11:15:40;;;;;;;20.33;10.95;;;29.40;40.00;;;;;;5093610;28;20028;-70
2021/09/10 11:18:09;;;;;;;20.17;11.02;;;29.40;40.10;;;;;;5093913;28;20032;-71
2021/09/10 11:20:42;;;;;;;14.13;10.20;;;29.30;40.10;;;;;;5093578;28;20023;-71
2021/09/10 11:23:11;;;;;;;17.92;14.27;;;29.20;40.00;;;;;;5093823;28;20027;-71
2021/09/10 11:25:47;;;;;;;18.10;9.50;;;29.20;40.40;;;;;;5093455;28;20074;-70
2021/09/10 11:28:13;;;;;;;15.43;8.90;;;29.10;40.20;;;;;;5093840;28;20406;-70
2021/09/10 11:30:40;;;;;;;13.75;10.77;;;29.00;40.30;;;;;;5093588;28;20031;-70
2021/09/10 11:33:05;;;;;;;23.33;10.18;;;28.90;40.90;;;;;;5093595;28;20110;-70
2021/09/10 11:35:36;;;;;;;15.38;12.43;;;28.80;41.00;;;;;;5093780;28;20161;-70
2021/09/10 11:38:09;;;;;;;16.92;9.48;;;28.80;41.00;;;;;;5093627;28;20082;-71
2021/09/10 11:40:42;;;;;;;13.85;9.65;;;28.90;41.10;;;;;;5093445;28;20082;-71
2021/09/10 11:43:37;;;;;;;18.73;10.23;;;28.80;41.40;;;;;;5092880;28;20115;-72
2021/09/10 11:46:10;;;;;;;16.23;9.63;;;28.90;41.20;;;;;;5075865;28;20382;-71
2021/09/10 11:48:46;;;;;;;12.88;9.70;;;28.90;41.80;;;;;;5093286;28;20094;-71
2021/09/10 11:51:13;;;;;;;15.77;10.52;;;28.90;41.20;;;;;;5093327;28;20147;-72
2021/09/10 11:53:45;;;;;;;11.63;8.77;;;28.90;41.10;;;;;;5093240;28;20027;-72
2021/09/10 11:56:12;;;;;;;11.18;9.35;;;28.90;40.90;;;;;;5093260;28;20024;-71
2021/09/10 11:58:51;;;;;;;10.38;8.52;;;28.90;41.00;;;;;;5107470;28;20035;-71
2021/09/10 12:01:30;;;;;;;16.90;9.75;;;28.90;40.80;;;;;;5112445;28;20035;-70
2021/09/10 12:03:57;;;;;;;17.38;11.80;;;28.90;40.60;;;;;;5113623;28;20442;-71
2021/09/10 12:06:29;;;;;;;12.13;9.68;;;28.90;40.60;;;;;;5094782;28;20462;-71
2021/09/10 12:09:19;;;;;;;19.20;8.90;;;28.80;40.80;;;;;;5113440;28;20027;-71
2021/09/10 12:12:16;;;;;;;15.80;9.70;;;28.80;40.80;;;;;;5113733;28;20024;-71
2021/09/10 12:14:57;;;;;;;16.13;9.05;;;28.80;40.70;;;;;;5113326;28;20791;-70
2021/09/10 12:17:23;;;;;;;14.17;8.80;;;28.80;40.40;;;;;;5094997;28;20031;-70
2021/09/10 12:20:08;;;;;;;17.05;9.38;;;28.70;39.90;;;;;;5095164;28;20081;-70
2021/09/10 12:22:53;;;;;;;10.80;9.05;;;28.60;39.80;;;;;;5113549;28;20485;-71
2021/09/10 12:25:25;;;;;;;17.00;11.15;;;28.60;39.70;;;;;;5111556;28;20027;-71
2021/09/10 12:28:08;;;;;;;15.43;9.05;;;28.50;39.90;;;;;;5112601;28;20024;-71
2021/09/10 12:30:55;;;;;;;12.65;8.63;;;28.50;40.00;;;;;;5094080;28;20078;-70
2021/09/10 12:33:24;;;;;;;13.00;9.27;;;28.40;39.70;;;;;;5113269;28;20446;-71
2021/09/10 12:35:57;;;;;;;22.38;12.80;;;28.40;39.80;;;;;;5113090;28;20024;-71